sensor_id;sensor_type;location;lat;lon;timestamp;pressure;altitude;pressure_sealevel;temperature;humidity
72677;BME280;60755;51.374;10.662;2023-05-22T00:02:01;97169.69;;;16.78;80.48
72677;BME280;60755;51.374;10.662;2023-05-22T00:04:29;97162.81;;;16.72;80.30
72677;BME280;60755;51.374;10.662;2023-05-22T00:06:57;97159.91;;;16.68;80.22
72677;BME280;60755;51.374;10.662;2023-05-22T00:09:26;97165.69;;;16.75;79.74
72677;BME280;60755;51.374;10.662;2023-05-22T00:11:53;97165.69;;;16.75;80.25
72677;BME280;60755;51.374;10.662;2023-05-22T00:14:20;97166.66;;;16.90;79.45
72677;BME280;60755;51.374;10.662;2023-05-22T00:16:48;97160.63;;;16.79;79.92
72677;BME280;60755;51.374;10.662;2023-05-22T00:19:15;97161.34;;;16.90;79.63
72677;BME280;60755;51.374;10.662;2023-05-22T00:21:43;97166.97;;;16.83;80.03
72677;BME280;60755;51.374;10.662;2023-05-22T00:24:12;97171.50;;;16.83;79.95
72677;BME280;60755;51.374;10.662;2023-05-22T00:26:40;97169.38;;;16.85;80.11
72677;BME280;60755;51.374;10.662;2023-05-22T00:29:08;97160.81;;;16.93;79.14
72677;BME280;60755;51.374;10.662;2023-05-22T00:31:35;97151.31;;;16.87;80.29
72677;BME280;60755;51.374;10.662;2023-05-22T00:34:03;97159.84;;;16.78;80.34
72677;BME280;60755;51.374;10.662;2023-05-22T00:36:31;97156.47;;;16.63;81.15
72677;BME280;60755;51.374;10.662;2023-05-22T00:38:59;97154.69;;;16.53;81.33
72677;BME280;60755;51.374;10.662;2023-05-22T00:41:26;97147.19;;;16.60;80.68
72677;BME280;60755;51.374;10.662;2023-05-22T00:43:55;97144.91;;;16.43;81.66
72677;BME280;60755;51.374;10.662;2023-05-22T00:46:23;97145.19;;;16.42;82.15
72677;BME280;60755;51.374;10.662;2023-05-22T00:48:51;97145.97;;;16.42;82.15
72677;BME280;60755;51.374;10.662;2023-05-22T00:51:19;97147.88;;;16.37;82.41
72677;BME280;60755;51.374;10.662;2023-05-22T00:53:47;97148.09;;;16.40;82.77
72677;BME280;60755;51.374;10.662;2023-05-22T00:56:16;97149.47;;;16.38;82.29
72677;BME280;60755;51.374;10.662;2023-05-22T00:58:44;97144.16;;;16.38;82.66
72677;BME280;60755;51.374;10.662;2023-05-22T01:01:13;97148.88;;;16.46;82.11
72677;BME280;60755;51.374;10.662;2023-05-22T01:03:41;97142.25;;;16.43;82.16
72677;BME280;60755;51.374;10.662;2023-05-22T01:06:10;97143.59;;;16.41;82.05
72677;BME280;60755;51.374;10.662;2023-05-22T01:08:37;97140.44;;;16.34;82.22
72677;BME280;60755;51.374;10.662;2023-05-22T01:11:09;97136.50;;;16.31;82.57
72677;BME280;60755;51.374;10.662;2023-05-22T01:13:45;97143.69;;;16.26;83.07
72677;BME280;60755;51.374;10.662;2023-05-22T01:16:23;97143.38;;;16.32;82.72
72677;BME280;60755;51.374;10.662;2023-05-22T01:18:59;97143.91;;;16.34;82.73
72677;BME280;60755;51.374;10.662;2023-05-22T01:21:35;97148.47;;;16.23;82.79
72677;BME280;60755;51.374;10.662;2023-05-22T01:24:19;97141.53;;;16.28;82.21
72677;BME280;60755;51.374;10.662;2023-05-22T01:30:02;97143.16;;;16.23;82.61
72677;BME280;60755;51.374;10.662;2023-05-22T01:32:36;97149.03;;;16.15;82.12
72677;BME280;60755;51.374;10.662;2023-05-22T01:35:07;97151.69;;;16.10;83.09
72677;BME280;60755;51.374;10.662;2023-05-22T01:37:37;97154.63;;;16.04;83.10
72677;BME280;60755;51.374;10.662;2023-05-22T01:40:06;97153.56;;;16.10;83.00
72677;BME280;60755;51.374;10.662;2023-05-22T01:42:34;97151.91;;;16.19;82.09
72677;BME280;60755;51.374;10.662;2023-05-22T01:45:01;97158.69;;;15.91;83.61
72677;BME280;60755;51.374;10.662;2023-05-22T01:47:29;97151.31;;;15.62;85.18
72677;BME280;60755;51.374;10.662;2023-05-22T01:50:00;97153.47;;;15.45;86.09
72677;BME280;60755;51.374;10.662;2023-05-22T01:52:32;97150.81;;;15.30;86.71
72677;BME280;60755;51.374;10.662;2023-05-22T01:55:07;97145.31;;;15.16;87.76
72677;BME280;60755;51.374;10.662;2023-05-22T01:57:44;97146.06;;;15.06;88.48
72677;BME280;60755;51.374;10.662;2023-05-22T02:00:14;97143.19;;;14.93;89.30
72677;BME280;60755;51.374;10.662;2023-05-22T02:02:46;97148.22;;;14.84;90.42
72677;BME280;60755;51.374;10.662;2023-05-22T02:05:18;97148.75;;;14.76;90.96
72677;BME280;60755;51.374;10.662;2023-05-22T02:07:49;97150.84;;;14.69;91.83
72677;BME280;60755;51.374;10.662;2023-05-22T02:10:17;97145.50;;;14.59;91.44
72677;BME280;60755;51.374;10.662;2023-05-22T02:12:47;97151.59;;;14.59;92.44
72677;BME280;60755;51.374;10.662;2023-05-22T02:15:15;97141.81;;;14.49;92.04
72677;BME280;60755;51.374;10.662;2023-05-22T02:17:43;97139.69;;;14.51;93.14
72677;BME280;60755;51.374;10.662;2023-05-22T02:20:14;97139.19;;;14.54;93.39
72677;BME280;60755;51.374;10.662;2023-05-22T02:22:45;97134.94;;;14.53;93.08
72677;BME280;60755;51.374;10.662;2023-05-22T02:25:14;97138.09;;;14.50;91.98
72677;BME280;60755;51.374;10.662;2023-05-22T02:27:44;97133.88;;;14.49;92.93
72677;BME280;60755;51.374;10.662;2023-05-22T02:30:13;97133.38;;;14.52;92.70
72677;BME280;60755;51.374;10.662;2023-05-22T02:32:42;97130.44;;;14.59;93.15
72677;BME280;60755;51.374;10.662;2023-05-22T02:35:09;97135.47;;;14.66;91.61
72677;BME280;60755;51.374;10.662;2023-05-22T02:37:37;97124.34;;;14.59;92.23
72677;BME280;60755;51.374;10.662;2023-05-22T02:40:07;97124.38;;;14.53;93.07
72677;BME280;60755;51.374;10.662;2023-05-22T02:42:36;97130.44;;;14.49;93.24
72677;BME280;60755;51.374;10.662;2023-05-22T02:45:04;97131.78;;;14.57;92.73
72677;BME280;60755;51.374;10.662;2023-05-22T02:47:31;97132.81;;;14.55;92.61
72677;BME280;60755;51.374;10.662;2023-05-22T02:49:59;97131.22;;;14.60;92.16
72677;BME280;60755;51.374;10.662;2023-05-22T02:52:26;97135.75;;;14.90;91.61
72677;BME280;60755;51.374;10.662;2023-05-22T02:54:54;97129.41;;;15.06;90.44
72677;BME280;60755;51.374;10.662;2023-05-22T02:57:24;97132.31;;;15.20;88.68
72677;BME280;60755;51.374;10.662;2023-05-22T02:59:51;97123.59;;;15.19;89.57
72677;BME280;60755;51.374;10.662;2023-05-22T03:02:19;97129.66;;;15.15;88.94
72677;BME280;60755;51.374;10.662;2023-05-22T03:04:47;97132.88;;;15.01;90.13
72677;BME280;60755;51.374;10.662;2023-05-22T03:07:15;97123.34;;;14.95;90.44
72677;BME280;60755;51.374;10.662;2023-05-22T03:09:42;97119.63;;;14.96;90.29
72677;BME280;60755;51.374;10.662;2023-05-22T03:12:09;97116.97;;;15.11;89.68
72677;BME280;60755;51.374;10.662;2023-05-22T03:14:38;97115.09;;;15.07;90.31
72677;BME280;60755;51.374;10.662;2023-05-22T03:17:06;97112.19;;;15.14;89.84
72677;BME280;60755;51.374;10.662;2023-05-22T03:19:33;97109.81;;;15.07;89.18
72677;BME280;60755;51.374;10.662;2023-05-22T03:22:01;97112.22;;;15.08;90.26
72677;BME280;60755;51.374;10.662;2023-05-22T03:24:29;97106.38;;;14.91;90.76
72677;BME280;60755;51.374;10.662;2023-05-22T03:26:57;97110.09;;;14.80;91.17
72677;BME280;60755;51.374;10.662;2023-05-22T03:29:34;97107.19;;;14.71;91.86
72677;BME280;60755;51.374;10.662;2023-05-22T03:32:04;97107.44;;;14.65;91.71
72677;BME280;60755;51.374;10.662;2023-05-22T03:34:32;97106.41;;;14.61;92.72
72677;BME280;60755;51.374;10.662;2023-05-22T03:37:01;97111.69;;;14.61;92.69
72677;BME280;60755;51.374;10.662;2023-05-22T03:39:28;97113.25;;;14.67;91.95
72677;BME280;60755;51.374;10.662;2023-05-22T03:42:00;97109.56;;;14.83;90.80
72677;BME280;60755;51.374;10.662;2023-05-22T03:44:28;97111.69;;;15.11;90.81
72677;BME280;60755;51.374;10.662;2023-05-22T03:46:56;97110.03;;;15.36;88.94
72677;BME280;60755;51.374;10.662;2023-05-22T03:49:25;97105.00;;;15.45;88.02
72677;BME280;60755;51.374;10.662;2023-05-22T03:51:52;97114.28;;;15.42;86.97
72677;BME280;60755;51.374;10.662;2023-05-22T03:54:20;97105.78;;;15.45;87.67
72677;BME280;60755;51.374;10.662;2023-05-22T03:56:48;97108.16;;;15.47;86.68
72677;BME280;60755;51.374;10.662;2023-05-22T03:59:16;97113.16;;;15.63;87.65
72677;BME280;60755;51.374;10.662;2023-05-22T04:01:43;97111.34;;;15.64;86.48
72677;BME280;60755;51.374;10.662;2023-05-22T04:04:13;97115.25;;;15.72;86.12
72677;BME280;60755;51.374;10.662;2023-05-22T04:06:43;97118.97;;;15.81;86.03
72677;BME280;60755;51.374;10.662;2023-05-22T04:09:13;97122.06;;;15.98;84.92
72677;BME280;60755;51.374;10.662;2023-05-22T04:11:40;97117.22;;;16.15;84.42
72677;BME280;60755;51.374;10.662;2023-05-22T04:14:08;97117.66;;;16.28;84.55
72677;BME280;60755;51.374;10.662;2023-05-22T04:16:36;97116.56;;;16.39;83.67
72677;BME280;60755;51.374;10.662;2023-05-22T04:19:04;97123.34;;;16.55;82.25
72677;BME280;60755;51.374;10.662;2023-05-22T04:21:34;97123.78;;;16.67;82.20
72677;BME280;60755;51.374;10.662;2023-05-22T04:24:05;97119.91;;;16.94;81.39
72677;BME280;60755;51.374;10.662;2023-05-22T04:26:33;97122.97;;;17.11;80.08
72677;BME280;60755;51.374;10.662;2023-05-22T04:29:01;97123.56;;;17.03;80.37
72677;BME280;60755;51.374;10.662;2023-05-22T04:31:28;97124.16;;;17.24;79.56
72677;BME280;60755;51.374;10.662;2023-05-22T04:33:57;97124.75;;;17.45;78.97
72677;BME280;60755;51.374;10.662;2023-05-22T04:36:25;97123.09;;;17.78;77.73
72677;BME280;60755;51.374;10.662;2023-05-22T04:38:52;97122.53;;;18.05;76.80
72677;BME280;60755;51.374;10.662;2023-05-22T04:41:21;97125.69;;;18.44;75.19
72677;BME280;60755;51.374;10.662;2023-05-22T04:43:51;97121.97;;;18.64;74.00
72677;BME280;60755;51.374;10.662;2023-05-22T04:46:19;97122.56;;;18.80;74.35
72677;BME280;60755;51.374;10.662;2023-05-22T04:48:47;97117.94;;;19.32;71.50
72677;BME280;60755;51.374;10.662;2023-05-22T04:51:15;97117.72;;;20.02;69.40
72677;BME280;60755;51.374;10.662;2023-05-22T04:53:42;97118.25;;;20.54;67.37
72677;BME280;60755;51.374;10.662;2023-05-22T04:56:11;97118.56;;;20.98;66.45
72677;BME280;60755;51.374;10.662;2023-05-22T04:58:39;97111.38;;;21.29;64.54
72677;BME280;60755;51.374;10.662;2023-05-22T05:01:07;97111.91;;;21.79;62.99
72677;BME280;60755;51.374;10.662;2023-05-22T05:03:36;97106.69;;;22.75;60.40
72677;BME280;60755;51.374;10.662;2023-05-22T05:06:04;97111.44;;;23.04;58.94
72677;BME280;60755;51.374;10.662;2023-05-22T05:08:33;97107.97;;;23.59;57.41
72677;BME280;60755;51.374;10.662;2023-05-22T05:11:01;97113.75;;;23.78;56.82
72677;BME280;60755;51.374;10.662;2023-05-22T05:13:28;97107.06;;;24.64;54.26
72677;BME280;60755;51.374;10.662;2023-05-22T05:15:58;97100.44;;;25.16;53.92
72677;BME280;60755;51.374;10.662;2023-05-22T05:18:26;97097.50;;;25.90;51.30
72677;BME280;60755;51.374;10.662;2023-05-22T05:20:53;97101.97;;;26.75;49.19
72677;BME280;60755;51.374;10.662;2023-05-22T05:23:21;97098.88;;;26.89;49.63
72677;BME280;60755;51.374;10.662;2023-05-22T05:25:49;97099.06;;;26.68;49.37
72677;BME280;60755;51.374;10.662;2023-05-22T05:28:16;97104.38;;;26.65;49.54
72677;BME280;60755;51.374;10.662;2023-05-22T05:30:44;97094.03;;;26.02;50.45
72677;BME280;60755;51.374;10.662;2023-05-22T05:33:26;97100.31;;;25.82;52.08
72677;BME280;60755;51.374;10.662;2023-05-22T05:36:12;97097.81;;;25.52;52.34
72677;BME280;60755;51.374;10.662;2023-05-22T05:38:40;97107.94;;;24.89;52.46
72677;BME280;60755;51.374;10.662;2023-05-22T05:41:08;97107.41;;;24.63;52.99
72677;BME280;60755;51.374;10.662;2023-05-22T05:43:36;97107.81;;;24.23;54.01
72677;BME280;60755;51.374;10.662;2023-05-22T05:46:07;97102.81;;;24.13;55.17
72677;BME280;60755;51.374;10.662;2023-05-22T05:48:36;97106.47;;;23.79;57.78
72677;BME280;60755;51.374;10.662;2023-05-22T05:51:04;97106.97;;;23.72;58.14
72677;BME280;60755;51.374;10.662;2023-05-22T05:53:37;97101.66;;;23.63;57.84
72677;BME280;60755;51.374;10.662;2023-05-22T05:56:06;97106.44;;;23.87;57.33
72677;BME280;60755;51.374;10.662;2023-05-22T05:58:35;97102.91;;;24.67;55.85
72677;BME280;60755;51.374;10.662;2023-05-22T06:01:25;97108.50;;;25.16;55.55
72677;BME280;60755;51.374;10.662;2023-05-22T06:03:55;97098.28;;;26.15;54.06
72677;BME280;60755;51.374;10.662;2023-05-22T06:06:30;97101.72;;;26.81;53.54
72677;BME280;60755;51.374;10.662;2023-05-22T06:09:24;97095.50;;;27.52;52.91
72677;BME280;60755;51.374;10.662;2023-05-22T06:12:10;97104.06;;;28.21;47.36
72677;BME280;60755;51.374;10.662;2023-05-22T06:14:39;97101.22;;;27.98;47.46
72677;BME280;60755;51.374;10.662;2023-05-22T06:17:06;97093.91;;;27.35;48.91
72677;BME280;60755;51.374;10.662;2023-05-22T06:19:37;97094.16;;;26.58;49.39
72677;BME280;60755;51.374;10.662;2023-05-22T06:22:04;97096.69;;;26.14;52.25
72677;BME280;60755;51.374;10.662;2023-05-22T06:24:31;97100.84;;;26.24;51.50
72677;BME280;60755;51.374;10.662;2023-05-22T06:27:04;97096.53;;;27.31;49.23
72677;BME280;60755;51.374;10.662;2023-05-22T06:29:32;97098.94;;;28.70;45.54
72677;BME280;60755;51.374;10.662;2023-05-22T06:31:59;97103.25;;;28.90;45.07
72677;BME280;60755;51.374;10.662;2023-05-22T06:34:27;97098.78;;;28.43;46.04
72677;BME280;60755;51.374;10.662;2023-05-22T06:36:58;97104.16;;;30.13;43.77
72677;BME280;60755;51.374;10.662;2023-05-22T06:39:30;97096.03;;;31.91;40.38
72677;BME280;60755;51.374;10.662;2023-05-22T06:42:06;97100.59;;;33.44;37.62
72677;BME280;60755;51.374;10.662;2023-05-22T06:45:04;97100.50;;;32.94;37.89
72677;BME280;60755;51.374;10.662;2023-05-22T06:47:40;97105.22;;;34.50;34.25
72677;BME280;60755;51.374;10.662;2023-05-22T06:50:08;97104.06;;;33.26;36.65
72677;BME280;60755;51.374;10.662;2023-05-22T06:52:38;97099.38;;;34.37;34.74
72677;BME280;60755;51.374;10.662;2023-05-22T06:55:07;97103.16;;;35.49;32.71
72677;BME280;60755;51.374;10.662;2023-05-22T06:57:47;97100.41;;;37.03;31.93
72677;BME280;60755;51.374;10.662;2023-05-22T07:00:15;97112.56;;;37.02;32.14
72677;BME280;60755;51.374;10.662;2023-05-22T07:02:58;97107.84;;;37.33;32.52
72677;BME280;60755;51.374;10.662;2023-05-22T07:05:31;97099.31;;;36.97;29.13
72677;BME280;60755;51.374;10.662;2023-05-22T07:08:01;97106.13;;;35.69;33.28
72677;BME280;60755;51.374;10.662;2023-05-22T07:10:29;97104.28;;;36.03;33.71
72677;BME280;60755;51.374;10.662;2023-05-22T07:12:57;97110.28;;;36.29;31.20
72677;BME280;60755;51.374;10.662;2023-05-22T07:15:25;97110.69;;;35.86;30.77
72677;BME280;60755;51.374;10.662;2023-05-22T07:17:55;97113.66;;;34.91;34.35
72677;BME280;60755;51.374;10.662;2023-05-22T07:20:22;97120.09;;;33.99;33.82
72677;BME280;60755;51.374;10.662;2023-05-22T07:23:01;97118.50;;;31.81;36.61
72677;BME280;60755;51.374;10.662;2023-05-22T07:25:28;97116.16;;;31.80;37.90
72677;BME280;60755;51.374;10.662;2023-05-22T07:27:56;97118.66;;;30.54;38.94
72677;BME280;60755;51.374;10.662;2023-05-22T07:30:24;97112.00;;;30.48;39.11
72677;BME280;60755;51.374;10.662;2023-05-22T07:32:52;97121.81;;;30.03;41.44
72677;BME280;60755;51.374;10.662;2023-05-22T07:35:20;97124.13;;;29.32;42.69
72677;BME280;60755;51.374;10.662;2023-05-22T07:37:47;97120.72;;;28.58;44.56
72677;BME280;60755;51.374;10.662;2023-05-22T07:40:16;97125.03;;;28.08;45.42
72677;BME280;60755;51.374;10.662;2023-05-22T07:42:43;97114.41;;;27.52;45.50
72677;BME280;60755;51.374;10.662;2023-05-22T07:45:12;97116.41;;;26.31;47.51
72677;BME280;60755;51.374;10.662;2023-05-22T07:47:39;97109.97;;;25.83;50.84
72677;BME280;60755;51.374;10.662;2023-05-22T07:50:07;97116.91;;;25.72;52.02
72677;BME280;60755;51.374;10.662;2023-05-22T07:52:38;97110.56;;;26.53;49.43
72677;BME280;60755;51.374;10.662;2023-05-22T07:55:06;97122.38;;;26.48;50.81
72677;BME280;60755;51.374;10.662;2023-05-22T07:57:38;97123.69;;;26.55;52.64
72677;BME280;60755;51.374;10.662;2023-05-22T08:00:15;97120.94;;;26.27;50.25
72677;BME280;60755;51.374;10.662;2023-05-22T08:02:43;97116.56;;;26.10;50.45
72677;BME280;60755;51.374;10.662;2023-05-22T08:05:10;97118.25;;;25.90;51.03
72677;BME280;60755;51.374;10.662;2023-05-22T08:07:37;97125.22;;;25.21;52.37
72677;BME280;60755;51.374;10.662;2023-05-22T08:10:11;97114.22;;;24.93;53.18
72677;BME280;60755;51.374;10.662;2023-05-22T08:12:40;97123.41;;;24.92;54.98
72677;BME280;60755;51.374;10.662;2023-05-22T08:15:09;97116.63;;;24.74;55.62
72677;BME280;60755;51.374;10.662;2023-05-22T08:17:36;97111.31;;;24.44;54.38
72677;BME280;60755;51.374;10.662;2023-05-22T08:20:04;97116.66;;;23.94;56.27
72677;BME280;60755;51.374;10.662;2023-05-22T08:22:31;97116.75;;;23.77;57.22
72677;BME280;60755;51.374;10.662;2023-05-22T08:24:58;97114.81;;;23.86;57.92
72677;BME280;60755;51.374;10.662;2023-05-22T08:27:26;97118.00;;;24.09;57.53
72677;BME280;60755;51.374;10.662;2023-05-22T08:29:54;97107.06;;;24.14;58.14
72677;BME280;60755;51.374;10.662;2023-05-22T08:32:21;97108.06;;;24.39;57.48
72677;BME280;60755;51.374;10.662;2023-05-22T08:34:48;97113.22;;;24.65;58.43
72677;BME280;60755;51.374;10.662;2023-05-22T08:37:15;97115.84;;;24.73;57.11
72677;BME280;60755;51.374;10.662;2023-05-22T08:39:42;97106.25;;;24.84;55.47
72677;BME280;60755;51.374;10.662;2023-05-22T08:42:10;97103.09;;;24.62;55.98
72677;BME280;60755;51.374;10.662;2023-05-22T08:44:38;97100.47;;;24.95;58.33
72677;BME280;60755;51.374;10.662;2023-05-22T08:47:07;97101.44;;;25.11;55.08
72677;BME280;60755;51.374;10.662;2023-05-22T08:49:37;97099.81;;;24.77;57.38
72677;BME280;60755;51.374;10.662;2023-05-22T08:52:08;97089.66;;;24.82;56.37
72677;BME280;60755;51.374;10.662;2023-05-22T08:54:40;97095.13;;;24.74;57.83
72677;BME280;60755;51.374;10.662;2023-05-22T08:57:08;97087.69;;;24.29;56.21
72677;BME280;60755;51.374;10.662;2023-05-22T08:59:37;97093.75;;;23.96;58.58
72677;BME280;60755;51.374;10.662;2023-05-22T09:02:06;97093.13;;;24.20;57.12
72677;BME280;60755;51.374;10.662;2023-05-22T09:04:34;97084.06;;;24.04;57.35
72677;BME280;60755;51.374;10.662;2023-05-22T09:07:01;97094.69;;;24.00;57.07
72677;BME280;60755;51.374;10.662;2023-05-22T09:09:31;97085.50;;;24.02;57.73
72677;BME280;60755;51.374;10.662;2023-05-22T09:11:58;97089.03;;;23.93;57.94
72677;BME280;60755;51.374;10.662;2023-05-22T09:14:26;97087.91;;;23.65;57.69
72677;BME280;60755;51.374;10.662;2023-05-22T09:16:53;97094.22;;;23.69;57.92
72677;BME280;60755;51.374;10.662;2023-05-22T09:19:22;97084.31;;;23.90;59.23
72677;BME280;60755;51.374;10.662;2023-05-22T09:21:49;97084.72;;;24.22;58.07
72677;BME280;60755;51.374;10.662;2023-05-22T09:24:16;97084.41;;;24.32;58.14
72677;BME280;60755;51.374;10.662;2023-05-22T09:26:43;97080.97;;;24.65;57.54
72677;BME280;60755;51.374;10.662;2023-05-22T09:29:10;97086.88;;;24.58;54.25
72677;BME280;60755;51.374;10.662;2023-05-22T09:31:40;97084.22;;;24.08;55.93
72677;BME280;60755;51.374;10.662;2023-05-22T09:34:08;97087.97;;;23.86;56.53
72677;BME280;60755;51.374;10.662;2023-05-22T09:36:37;97084.16;;;23.87;54.50
72677;BME280;60755;51.374;10.662;2023-05-22T09:39:04;97081.16;;;23.88;56.11
72677;BME280;60755;51.374;10.662;2023-05-22T09:41:34;97081.31;;;23.92;56.24
72677;BME280;60755;51.374;10.662;2023-05-22T09:44:10;97085.91;;;23.91;55.48
72677;BME280;60755;51.374;10.662;2023-05-22T09:46:39;97081.72;;;24.03;57.47
72677;BME280;60755;51.374;10.662;2023-05-22T09:49:06;97084.09;;;23.75;57.31
72677;BME280;60755;51.374;10.662;2023-05-22T09:51:34;97075.25;;;24.24;54.26
72677;BME280;60755;51.374;10.662;2023-05-22T09:54:07;97082.88;;;24.14;55.20
72677;BME280;60755;51.374;10.662;2023-05-22T09:56:35;97082.16;;;24.05;56.69
72677;BME280;60755;51.374;10.662;2023-05-22T09:59:04;97082.09;;;24.43;56.33
72677;BME280;60755;51.374;10.662;2023-05-22T10:01:34;97088.31;;;24.55;53.64
72677;BME280;60755;51.374;10.662;2023-05-22T10:04:03;97077.50;;;24.64;55.80
72677;BME280;60755;51.374;10.662;2023-05-22T10:06:32;97082.03;;;24.51;52.74
72677;BME280;60755;51.374;10.662;2023-05-22T10:09:02;97082.25;;;24.46;54.06
72677;BME280;60755;51.374;10.662;2023-05-22T10:11:32;97065.13;;;24.51;54.29
72677;BME280;60755;51.374;10.662;2023-05-22T10:14:01;97064.69;;;24.82;53.79
72677;BME280;60755;51.374;10.662;2023-05-22T10:16:29;97070.47;;;24.72;52.81
72677;BME280;60755;51.374;10.662;2023-05-22T10:18:59;97068.22;;;24.74;52.79
72677;BME280;60755;51.374;10.662;2023-05-22T10:21:27;97069.03;;;24.53;56.04
72677;BME280;60755;51.374;10.662;2023-05-22T10:23:56;97053.25;;;24.85;54.90
72677;BME280;60755;51.374;10.662;2023-05-22T10:26:26;97061.69;;;25.29;55.47
72677;BME280;60755;51.374;10.662;2023-05-22T10:28:58;97059.63;;;25.14;54.94
72677;BME280;60755;51.374;10.662;2023-05-22T10:31:33;97059.56;;;25.01;51.62
72677;BME280;60755;51.374;10.662;2023-05-22T10:34:21;97062.25;;;25.01;52.22
72677;BME280;60755;51.374;10.662;2023-05-22T10:37:04;97049.03;;;24.96;53.06
72677;BME280;60755;51.374;10.662;2023-05-22T10:39:42;97052.97;;;24.99;52.76
72677;BME280;60755;51.374;10.662;2023-05-22T10:42:13;97049.56;;;24.90;53.17
72677;BME280;60755;51.374;10.662;2023-05-22T10:44:43;97045.34;;;25.01;52.21
72677;BME280;60755;51.374;10.662;2023-05-22T10:47:13;97046.06;;;25.10;51.54
72677;BME280;60755;51.374;10.662;2023-05-22T10:49:43;97044.31;;;24.93;51.54
72677;BME280;60755;51.374;10.662;2023-05-22T10:52:11;97042.97;;;24.99;53.00
72677;BME280;60755;51.374;10.662;2023-05-22T10:54:41;97048.34;;;25.20;52.65
72677;BME280;60755;51.374;10.662;2023-05-22T10:57:14;97037.69;;;25.24;53.62
72677;BME280;60755;51.374;10.662;2023-05-22T10:59:46;97038.13;;;25.26;51.60
72677;BME280;60755;51.374;10.662;2023-05-22T11:02:20;97034.66;;;25.13;54.23
72677;BME280;60755;51.374;10.662;2023-05-22T11:04:48;97033.06;;;25.12;51.08
72677;BME280;60755;51.374;10.662;2023-05-22T11:07:15;97032.50;;;24.73;53.35
72677;BME280;60755;51.374;10.662;2023-05-22T11:09:43;97030.66;;;24.98;54.02
72677;BME280;60755;51.374;10.662;2023-05-22T11:12:23;97038.47;;;25.12;54.95
72677;BME280;60755;51.374;10.662;2023-05-22T11:14:55;97023.75;;;25.09;53.28
72677;BME280;60755;51.374;10.662;2023-05-22T11:17:24;97030.28;;;25.33;52.34
72677;BME280;60755;51.374;10.662;2023-05-22T11:19:59;97017.94;;;25.32;54.94
72677;BME280;60755;51.374;10.662;2023-05-22T11:22:34;97022.00;;;25.62;53.11
72677;BME280;60755;51.374;10.662;2023-05-22T11:25:07;97023.78;;;25.71;53.67
72677;BME280;60755;51.374;10.662;2023-05-22T11:27:36;97013.69;;;25.92;52.54
72677;BME280;60755;51.374;10.662;2023-05-22T11:30:06;97027.59;;;25.45;51.95
72677;BME280;60755;51.374;10.662;2023-05-22T11:32:34;97026.25;;;25.27;52.39
72677;BME280;60755;51.374;10.662;2023-05-22T11:35:02;97025.81;;;25.49;50.96
72677;BME280;60755;51.374;10.662;2023-05-22T11:37:30;97026.03;;;25.44;51.30
72677;BME280;60755;51.374;10.662;2023-05-22T11:40:02;97019.09;;;25.19;52.88
72677;BME280;60755;51.374;10.662;2023-05-22T11:42:30;97027.94;;;24.86;52.53
72677;BME280;60755;51.374;10.662;2023-05-22T11:44:57;97014.03;;;24.84;52.77
72677;BME280;60755;51.374;10.662;2023-05-22T11:47:28;97024.00;;;25.04;53.98
72677;BME280;60755;51.374;10.662;2023-05-22T11:49:55;97026.94;;;25.48;52.46
72677;BME280;60755;51.374;10.662;2023-05-22T11:52:24;97021.97;;;25.50;53.60
72677;BME280;60755;51.374;10.662;2023-05-22T11:54:51;97015.59;;;25.79;52.76
72677;BME280;60755;51.374;10.662;2023-05-22T11:57:19;97007.31;;;25.84;51.33
72677;BME280;60755;51.374;10.662;2023-05-22T11:59:46;97013.69;;;25.67;52.44
72677;BME280;60755;51.374;10.662;2023-05-22T12:02:15;97002.47;;;25.65;54.77
72677;BME280;60755;51.374;10.662;2023-05-22T12:04:44;96995.56;;;26.17;55.35
72677;BME280;60755;51.374;10.662;2023-05-22T12:07:11;96995.25;;;26.62;51.87
72677;BME280;60755;51.374;10.662;2023-05-22T12:09:39;96996.91;;;26.51;49.14
72677;BME280;60755;51.374;10.662;2023-05-22T12:12:08;96992.78;;;26.41;50.55
72677;BME280;60755;51.374;10.662;2023-05-22T12:14:36;96999.47;;;26.19;52.01
72677;BME280;60755;51.374;10.662;2023-05-22T12:17:03;96993.66;;;26.05;53.42
72677;BME280;60755;51.374;10.662;2023-05-22T12:19:31;96988.59;;;26.16;52.41
72677;BME280;60755;51.374;10.662;2023-05-22T12:21:59;96988.38;;;26.49;50.81
72677;BME280;60755;51.374;10.662;2023-05-22T12:24:36;96999.03;;;26.17;50.92
72677;BME280;60755;51.374;10.662;2023-05-22T12:27:07;96993.94;;;26.00;50.84
72677;BME280;60755;51.374;10.662;2023-05-22T12:29:34;96991.94;;;25.85;52.29
72677;BME280;60755;51.374;10.662;2023-05-22T12:32:02;96989.88;;;26.34;51.86
72677;BME280;60755;51.374;10.662;2023-05-22T12:34:32;96991.59;;;26.55;53.22
72677;BME280;60755;51.374;10.662;2023-05-22T12:37:01;96992.09;;;26.72;51.94
72677;BME280;60755;51.374;10.662;2023-05-22T12:39:28;96982.88;;;26.73;50.47
72677;BME280;60755;51.374;10.662;2023-05-22T12:41:55;96985.44;;;26.70;50.71
72677;BME280;60755;51.374;10.662;2023-05-22T12:44:22;96990.81;;;26.98;51.12
72677;BME280;60755;51.374;10.662;2023-05-22T12:46:51;96983.88;;;27.13;50.63
72677;BME280;60755;51.374;10.662;2023-05-22T12:49:18;96983.59;;;27.33;48.10
72677;BME280;60755;51.374;10.662;2023-05-22T12:51:45;96989.00;;;26.58;51.27
72677;BME280;60755;51.374;10.662;2023-05-22T12:54:13;96987.53;;;27.04;47.51
72677;BME280;60755;51.374;10.662;2023-05-22T12:56:40;96981.06;;;27.25;49.80
72677;BME280;60755;51.374;10.662;2023-05-22T12:59:07;96985.91;;;27.51;48.91
72677;BME280;60755;51.374;10.662;2023-05-22T13:01:35;96978.16;;;27.02;46.83
72677;BME280;60755;51.374;10.662;2023-05-22T13:04:02;96977.22;;;26.94;50.11
72677;BME280;60755;51.374;10.662;2023-05-22T13:06:29;96979.78;;;26.31;50.78